sensor_id;sensor_type;location;lat;lon;timestamp;P1;durP1;ratioP1;P2;durP2;ratioP2
82372;SDS011;72000;42.828;23.382;2024-03-22T00:01:57;6.80;;;2.70;;
82372;SDS011;72000;42.828;23.382;2024-03-22T00:04:22;6.88;;;2.50;;
82372;SDS011;72000;42.828;23.382;2024-03-22T00:06:49;7.03;;;2.38;;
82372;SDS011;72000;42.828;23.382;2024-03-22T00:09:15;7.85;;;2.70;;
82372;SDS011;72000;42.828;23.382;2024-03-22T00:11:42;7.05;;;2.45;;
82372;SDS011;72000;42.828;23.382;2024-03-22T00:16:34;5.70;;;2.50;;
82372;SDS011;72000;42.828;23.382;2024-03-22T00:18:59;7.40;;;2.70;;
82372;SDS011;72000;42.828;23.382;2024-03-22T00:21:25;9.27;;;3.00;;
82372;SDS011;72000;42.828;23.382;2024-03-22T00:23:51;6.63;;;2.67;;
82372;SDS011;72000;42.828;23.382;2024-03-22T00:26:16;6.55;;;2.80;;
82372;SDS011;72000;42.828;23.382;2024-03-22T00:28:42;5.22;;;2.40;;
82372;SDS011;72000;42.828;23.382;2024-03-22T00:31:08;5.85;;;2.42;;
82372;SDS011;72000;42.828;23.382;2024-03-22T00:33:34;6.57;;;2.72;;
82372;SDS011;72000;42.828;23.382;2024-03-22T00:36:00;8.02;;;2.80;;
82372;SDS011;72000;42.828;23.382;2024-03-22T00:38:25;5.50;;;2.58;;
82372;SDS011;72000;42.828;23.382;2024-03-22T00:40:51;6.60;;;2.42;;
82372;SDS011;72000;42.828;23.382;2024-03-22T00:43:17;6.20;;;2.50;;
82372;SDS011;72000;42.828;23.382;2024-03-22T00:45:42;6.78;;;2.42;;
82372;SDS011;72000;42.828;23.382;2024-03-22T00:48:08;6.65;;;2.80;;
82372;SDS011;72000;42.828;23.382;2024-03-22T00:50:33;6.90;;;2.42;;
82372;SDS011;72000;42.828;23.382;2024-03-22T00:52:59;5.82;;;2.50;;
82372;SDS011;72000;42.828;23.382;2024-03-22T00:55:25;8.07;;;2.80;;
82372;SDS011;72000;42.828;23.382;2024-03-22T00:57:51;7.47;;;2.60;;
82372;SDS011;72000;42.828;23.382;2024-03-22T01:00:17;6.55;;;2.72;;
82372;SDS011;72000;42.828;23.382;2024-03-22T01:02:43;6.80;;;3.03;;
82372;SDS011;72000;42.828;23.382;2024-03-22T01:05:08;7.35;;;2.83;;
82372;SDS011;72000;42.828;23.382;2024-03-22T01:07:35;7.93;;;2.65;;
82372;SDS011;72000;42.828;23.382;2024-03-22T01:10:01;6.22;;;2.58;;
82372;SDS011;72000;42.828;23.382;2024-03-22T01:12:27;6.25;;;2.75;;
82372;SDS011;72000;42.828;23.382;2024-03-22T01:14:53;7.55;;;2.83;;
82372;SDS011;72000;42.828;23.382;2024-03-22T01:17:19;6.40;;;2.70;;
82372;SDS011;72000;42.828;23.382;2024-03-22T01:19:45;8.27;;;2.85;;
82372;SDS011;72000;42.828;23.382;2024-03-22T01:22:10;6.82;;;2.80;;
82372;SDS011;72000;42.828;23.382;2024-03-22T01:24:36;7.45;;;2.85;;
82372;SDS011;72000;42.828;23.382;2024-03-22T01:27:01;5.60;;;2.63;;
82372;SDS011;72000;42.828;23.382;2024-03-22T01:29:27;8.00;;;2.70;;
82372;SDS011;72000;42.828;23.382;2024-03-22T01:31:59;5.93;;;2.65;;
82372;SDS011;72000;42.828;23.382;2024-03-22T01:34:24;7.20;;;2.85;;
82372;SDS011;72000;42.828;23.382;2024-03-22T01:36:53;9.07;;;3.00;;
82372;SDS011;72000;42.828;23.382;2024-03-22T01:39:19;6.70;;;2.60;;
82372;SDS011;72000;42.828;23.382;2024-03-22T01:41:49;7.53;;;3.15;;
82372;SDS011;72000;42.828;23.382;2024-03-22T01:44:15;7.25;;;3.03;;
82372;SDS011;72000;42.828;23.382;2024-03-22T01:46:41;8.77;;;3.05;;
82372;SDS011;72000;42.828;23.382;2024-03-22T01:49:08;5.75;;;2.70;;
82372;SDS011;72000;42.828;23.382;2024-03-22T01:51:34;6.50;;;2.45;;
82372;SDS011;72000;42.828;23.382;2024-03-22T01:54:01;6.53;;;2.72;;
82372;SDS011;72000;42.828;23.382;2024-03-22T01:56:27;6.18;;;2.80;;
82372;SDS011;72000;42.828;23.382;2024-03-22T01:58:53;7.32;;;2.78;;
82372;SDS011;72000;42.828;23.382;2024-03-22T02:01:20;7.57;;;2.67;;
82372;SDS011;72000;42.828;23.382;2024-03-22T02:03:45;7.90;;;3.13;;
82372;SDS011;72000;42.828;23.382;2024-03-22T02:06:11;8.13;;;2.53;;
82372;SDS011;72000;42.828;23.382;2024-03-22T02:08:36;7.78;;;2.60;;
82372;SDS011;72000;42.828;23.382;2024-03-22T02:11:02;8.38;;;2.95;;
82372;SDS011;72000;42.828;23.382;2024-03-22T02:13:28;6.25;;;2.70;;
82372;SDS011;72000;42.828;23.382;2024-03-22T02:15:54;7.03;;;2.85;;
82372;SDS011;72000;42.828;23.382;2024-03-22T02:18:19;7.35;;;2.88;;
82372;SDS011;72000;42.828;23.382;2024-03-22T02:20:45;7.57;;;2.83;;
82372;SDS011;72000;42.828;23.382;2024-03-22T02:23:10;8.18;;;2.60;;
82372;SDS011;72000;42.828;23.382;2024-03-22T02:25:36;6.45;;;2.72;;
82372;SDS011;72000;42.828;23.382;2024-03-22T02:28:01;7.80;;;2.80;;
82372;SDS011;72000;42.828;23.382;2024-03-22T02:30:27;7.53;;;2.67;;
82372;SDS011;72000;42.828;23.382;2024-03-22T02:32:53;8.15;;;2.90;;
82372;SDS011;72000;42.828;23.382;2024-03-22T02:35:18;7.32;;;2.55;;
82372;SDS011;72000;42.828;23.382;2024-03-22T02:37:44;6.25;;;2.60;;
82372;SDS011;72000;42.828;23.382;2024-03-22T02:40:09;5.82;;;2.70;;
82372;SDS011;72000;42.828;23.382;2024-03-22T02:42:36;6.15;;;2.67;;
82372;SDS011;72000;42.828;23.382;2024-03-22T02:45:01;7.30;;;2.85;;
82372;SDS011;72000;42.828;23.382;2024-03-22T02:47:27;6.80;;;2.70;;
82372;SDS011;72000;42.828;23.382;2024-03-22T02:49:52;5.85;;;2.70;;
82372;SDS011;72000;42.828;23.382;2024-03-22T02:52:18;6.90;;;2.75;;
82372;SDS011;72000;42.828;23.382;2024-03-22T02:54:43;6.70;;;2.60;;
82372;SDS011;72000;42.828;23.382;2024-03-22T02:57:09;7.07;;;2.55;;
82372;SDS011;72000;42.828;23.382;2024-03-22T02:59:34;8.95;;;2.72;;
82372;SDS011;72000;42.828;23.382;2024-03-22T03:02:00;7.72;;;3.00;;
82372;SDS011;72000;42.828;23.382;2024-03-22T03:04:25;7.72;;;2.80;;
82372;SDS011;72000;42.828;23.382;2024-03-22T03:06:51;7.00;;;2.90;;
82372;SDS011;72000;42.828;23.382;2024-03-22T03:09:16;7.93;;;3.00;;
82372;SDS011;72000;42.828;23.382;2024-03-22T03:11:42;8.32;;;2.90;;
82372;SDS011;72000;42.828;23.382;2024-03-22T03:14:08;7.28;;;2.80;;
82372;SDS011;72000;42.828;23.382;2024-03-22T03:16:33;7.25;;;3.08;;
82372;SDS011;72000;42.828;23.382;2024-03-22T03:18:59;5.93;;;2.60;;
82372;SDS011;72000;42.828;23.382;2024-03-22T03:21:24;8.32;;;3.03;;
82372;SDS011;72000;42.828;23.382;2024-03-22T03:23:50;8.90;;;2.80;;
82372;SDS011;72000;42.828;23.382;2024-03-22T03:26:15;6.18;;;2.67;;
82372;SDS011;72000;42.828;23.382;2024-03-22T03:28:41;7.65;;;2.88;;
82372;SDS011;72000;42.828;23.382;2024-03-22T03:31:06;7.57;;;2.70;;
82372;SDS011;72000;42.828;23.382;2024-03-22T03:33:32;9.70;;;3.30;;
82372;SDS011;72000;42.828;23.382;2024-03-22T03:35:57;6.55;;;2.75;;
82372;SDS011;72000;42.828;23.382;2024-03-22T03:38:23;7.68;;;2.75;;
82372;SDS011;72000;42.828;23.382;2024-03-22T03:40:48;6.45;;;2.50;;
82372;SDS011;72000;42.828;23.382;2024-03-22T03:43:14;6.20;;;2.47;;
82372;SDS011;72000;42.828;23.382;2024-03-22T03:45:39;6.13;;;2.65;;
82372;SDS011;72000;42.828;23.382;2024-03-22T03:48:05;6.97;;;2.90;;
82372;SDS011;72000;42.828;23.382;2024-03-22T03:50:31;8.93;;;2.60;;
82372;SDS011;72000;42.828;23.382;2024-03-22T03:52:56;6.47;;;2.60;;
82372;SDS011;72000;42.828;23.382;2024-03-22T03:55:22;5.97;;;2.60;;
82372;SDS011;72000;42.828;23.382;2024-03-22T03:57:49;7.53;;;2.90;;
82372;SDS011;72000;42.828;23.382;2024-03-22T04:00:15;8.70;;;2.92;;
82372;SDS011;72000;42.828;23.382;2024-03-22T04:02:41;8.85;;;2.90;;
82372;SDS011;72000;42.828;23.382;2024-03-22T04:05:07;6.97;;;2.70;;
82372;SDS011;72000;42.828;23.382;2024-03-22T04:07:33;6.20;;;2.75;;
82372;SDS011;72000;42.828;23.382;2024-03-22T04:09:58;5.90;;;2.40;;
82372;SDS011;72000;42.828;23.382;2024-03-22T04:12:25;6.18;;;2.72;;
82372;SDS011;72000;42.828;23.382;2024-03-22T04:17:17;6.28;;;2.72;;
82372;SDS011;72000;42.828;23.382;2024-03-22T04:19:43;7.30;;;2.42;;
82372;SDS011;72000;42.828;23.382;2024-03-22T04:22:08;7.07;;;2.63;;
82372;SDS011;72000;42.828;23.382;2024-03-22T04:24:34;6.97;;;2.60;;
82372;SDS011;72000;42.828;23.382;2024-03-22T04:26:59;6.97;;;2.60;;
82372;SDS011;72000;42.828;23.382;2024-03-22T04:29:25;6.40;;;2.65;;
82372;SDS011;72000;42.828;23.382;2024-03-22T04:31:50;6.53;;;2.72;;
82372;SDS011;72000;42.828;23.382;2024-03-22T04:34:16;7.10;;;2.80;;
82372;SDS011;72000;42.828;23.382;2024-03-22T04:36:41;6.78;;;2.70;;
82372;SDS011;72000;42.828;23.382;2024-03-22T04:39:07;6.93;;;2.80;;
82372;SDS011;72000;42.828;23.382;2024-03-22T04:41:35;5.40;;;2.47;;
82372;SDS011;72000;42.828;23.382;2024-03-22T04:44:00;6.72;;;2.60;;
82372;SDS011;72000;42.828;23.382;2024-03-22T04:46:26;7.40;;;2.60;;
82372;SDS011;72000;42.828;23.382;2024-03-22T04:48:51;8.00;;;3.25;;
82372;SDS011;72000;42.828;23.382;2024-03-22T04:51:17;6.68;;;2.58;;
82372;SDS011;72000;42.828;23.382;2024-03-22T04:53:42;7.50;;;2.70;;
82372;SDS011;72000;42.828;23.382;2024-03-22T04:56:09;6.75;;;2.70;;
82372;SDS011;72000;42.828;23.382;2024-03-22T04:58:34;8.77;;;2.80;;
82372;SDS011;72000;42.828;23.382;2024-03-22T05:01:00;6.05;;;2.60;;
82372;SDS011;72000;42.828;23.382;2024-03-22T05:03:25;6.45;;;2.92;;
82372;SDS011;72000;42.828;23.382;2024-03-22T05:05:51;7.63;;;2.70;;
82372;SDS011;72000;42.828;23.382;2024-03-22T05:08:17;7.20;;;2.90;;
82372;SDS011;72000;42.828;23.382;2024-03-22T05:10:42;6.30;;;2.60;;
82372;SDS011;72000;42.828;23.382;2024-03-22T05:13:07;7.75;;;2.60;;
82372;SDS011;72000;42.828;23.382;2024-03-22T05:15:33;7.47;;;2.40;;
82372;SDS011;72000;42.828;23.382;2024-03-22T05:17:58;6.78;;;2.47;;
82372;SDS011;72000;42.828;23.382;2024-03-22T05:20:24;5.15;;;2.35;;
82372;SDS011;72000;42.828;23.382;2024-03-22T05:22:50;6.07;;;2.25;;
82372;SDS011;72000;42.828;23.382;2024-03-22T05:25:16;6.85;;;2.70;;
82372;SDS011;72000;42.828;23.382;2024-03-22T05:27:42;6.43;;;2.70;;
82372;SDS011;72000;42.828;23.382;2024-03-22T05:30:08;6.15;;;2.72;;
82372;SDS011;72000;42.828;23.382;2024-03-22T05:32:35;6.75;;;3.00;;
82372;SDS011;72000;42.828;23.382;2024-03-22T05:35:00;8.25;;;3.03;;
82372;SDS011;72000;42.828;23.382;2024-03-22T05:37:26;7.28;;;3.00;;
82372;SDS011;72000;42.828;23.382;2024-03-22T05:39:52;7.40;;;2.92;;
82372;SDS011;72000;42.828;23.382;2024-03-22T05:42:17;8.75;;;3.05;;
82372;SDS011;72000;42.828;23.382;2024-03-22T05:44:43;8.18;;;2.78;;
82372;SDS011;72000;42.828;23.382;2024-03-22T05:47:09;7.72;;;3.10;;
82372;SDS011;72000;42.828;23.382;2024-03-22T05:49:35;7.38;;;3.22;;
82372;SDS011;72000;42.828;23.382;2024-03-22T05:52:00;8.35;;;3.20;;
82372;SDS011;72000;42.828;23.382;2024-03-22T05:54:26;10.68;;;3.50;;
82372;SDS011;72000;42.828;23.382;2024-03-22T05:56:51;8.15;;;3.25;;
82372;SDS011;72000;42.828;23.382;2024-03-22T05:59:18;8.60;;;3.50;;
82372;SDS011;72000;42.828;23.382;2024-03-22T06:04:09;9.05;;;3.70;;
82372;SDS011;72000;42.828;23.382;2024-03-22T06:06:35;10.13;;;3.67;;
82372;SDS011;72000;42.828;23.382;2024-03-22T06:09:01;10.20;;;3.85;;
82372;SDS011;72000;42.828;23.382;2024-03-22T06:11:34;10.75;;;3.70;;
82372;SDS011;72000;42.828;23.382;2024-03-22T06:13:59;9.10;;;3.83;;
82372;SDS011;72000;42.828;23.382;2024-03-22T06:16:25;10.60;;;4.00;;
82372;SDS011;72000;42.828;23.382;2024-03-22T06:18:51;8.38;;;3.55;;
82372;SDS011;72000;42.828;23.382;2024-03-22T06:21:16;10.48;;;3.75;;
82372;SDS011;72000;42.828;23.382;2024-03-22T06:23:48;8.85;;;3.67;;
82372;SDS011;72000;42.828;23.382;2024-03-22T06:26:15;9.82;;;3.38;;
82372;SDS011;72000;42.828;23.382;2024-03-22T06:28:40;10.23;;;3.58;;
82372;SDS011;72000;42.828;23.382;2024-03-22T06:31:06;8.23;;;3.50;;
82372;SDS011;72000;42.828;23.382;2024-03-22T06:33:31;11.05;;;3.78;;
82372;SDS011;72000;42.828;23.382;2024-03-22T06:35:57;7.80;;;3.35;;
82372;SDS011;72000;42.828;23.382;2024-03-22T06:38:22;10.70;;;3.30;;
82372;SDS011;72000;42.828;23.382;2024-03-22T06:40:48;7.18;;;3.03;;
82372;SDS011;72000;42.828;23.382;2024-03-22T06:43:13;8.15;;;3.20;;
82372;SDS011;72000;42.828;23.382;2024-03-22T06:45:39;7.95;;;2.80;;
82372;SDS011;72000;42.828;23.382;2024-03-22T06:48:04;5.90;;;2.88;;
82372;SDS011;72000;42.828;23.382;2024-03-22T06:50:30;7.55;;;3.15;;
82372;SDS011;72000;42.828;23.382;2024-03-22T06:52:56;6.63;;;2.85;;
82372;SDS011;72000;42.828;23.382;2024-03-22T06:55:21;7.53;;;3.10;;
82372;SDS011;72000;42.828;23.382;2024-03-22T06:57:47;10.73;;;3.20;;
82372;SDS011;72000;42.828;23.382;2024-03-22T07:00:13;7.72;;;3.42;;
82372;SDS011;72000;42.828;23.382;2024-03-22T07:05:06;9.75;;;3.75;;
82372;SDS011;72000;42.828;23.382;2024-03-22T07:07:32;11.02;;;4.22;;
82372;SDS011;72000;42.828;23.382;2024-03-22T07:09:58;11.02;;;4.18;;
82372;SDS011;72000;42.828;23.382;2024-03-22T07:12:23;11.10;;;4.57;;
82372;SDS011;72000;42.828;23.382;2024-03-22T07:14:49;12.98;;;4.85;;
82372;SDS011;72000;42.828;23.382;2024-03-22T07:17:14;11.23;;;4.38;;
82372;SDS011;72000;42.828;23.382;2024-03-22T07:19:40;8.57;;;4.10;;
82372;SDS011;72000;42.828;23.382;2024-03-22T07:22:06;11.75;;;4.43;;
82372;SDS011;72000;42.828;23.382;2024-03-22T07:24:32;9.45;;;4.00;;
82372;SDS011;72000;42.828;23.382;2024-03-22T07:26:57;10.90;;;4.25;;
82372;SDS011;72000;42.828;23.382;2024-03-22T07:29:23;11.57;;;4.60;;
82372;SDS011;72000;42.828;23.382;2024-03-22T07:31:48;7.28;;;3.42;;
82372;SDS011;72000;42.828;23.382;2024-03-22T07:34:14;6.72;;;2.88;;
82372;SDS011;72000;42.828;23.382;2024-03-22T07:36:40;6.43;;;2.75;;
82372;SDS011;72000;42.828;23.382;2024-03-22T07:39:06;8.20;;;3.30;;
82372;SDS011;72000;42.828;23.382;2024-03-22T07:41:32;6.85;;;3.30;;
82372;SDS011;72000;42.828;23.382;2024-03-22T07:44:00;9.63;;;3.40;;
82372;SDS011;72000;42.828;23.382;2024-03-22T07:46:26;9.00;;;3.20;;
82372;SDS011;72000;42.828;23.382;2024-03-22T07:48:52;7.75;;;2.95;;
82372;SDS011;72000;42.828;23.382;2024-03-22T07:51:18;8.77;;;3.90;;
82372;SDS011;72000;42.828;23.382;2024-03-22T07:56:09;6.97;;;3.30;;
82372;SDS011;72000;42.828;23.382;2024-03-22T07:58:35;8.55;;;3.63;;
82372;SDS011;72000;42.828;23.382;2024-03-22T08:01:00;8.90;;;3.78;;
82372;SDS011;72000;42.828;23.382;2024-03-22T08:03:26;8.25;;;3.50;;
82372;SDS011;72000;42.828;23.382;2024-03-22T08:05:51;7.78;;;3.40;;
82372;SDS011;72000;42.828;23.382;2024-03-22T08:08:17;7.13;;;3.03;;
82372;SDS011;72000;42.828;23.382;2024-03-22T08:10:43;7.78;;;3.53;;
82372;SDS011;72000;42.828;23.382;2024-03-22T08:13:08;7.65;;;3.17;;
82372;SDS011;72000;42.828;23.382;2024-03-22T08:15:34;9.27;;;3.47;;
82372;SDS011;72000;42.828;23.382;2024-03-22T08:18:00;7.97;;;3.30;;
82372;SDS011;72000;42.828;23.382;2024-03-22T08:20:26;6.65;;;3.35;;
82372;SDS011;72000;42.828;23.382;2024-03-22T08:22:52;6.50;;;3.03;;
82372;SDS011;72000;42.828;23.382;2024-03-22T08:25:17;6.15;;;2.55;;
82372;SDS011;72000;42.828;23.382;2024-03-22T08:27:45;9.40;;;2.80;;
82372;SDS011;72000;42.828;23.382;2024-03-22T08:30:12;7.80;;;3.13;;
82372;SDS011;72000;42.828;23.382;2024-03-22T08:32:38;7.28;;;2.97;;
82372;SDS011;72000;42.828;23.382;2024-03-22T08:35:03;6.03;;;2.70;;
82372;SDS011;72000;42.828;23.382;2024-03-22T08:37:29;6.03;;;2.67;;
82372;SDS011;72000;42.828;23.382;2024-03-22T08:39:58;7.75;;;2.88;;
82372;SDS011;72000;42.828;23.382;2024-03-22T08:42:24;6.95;;;2.63;;
82372;SDS011;72000;42.828;23.382;2024-03-22T08:44:49;7.15;;;2.83;;
82372;SDS011;72000;42.828;23.382;2024-03-22T08:47:14;5.97;;;2.30;;
82372;SDS011;72000;42.828;23.382;2024-03-22T08:49:40;5.78;;;2.42;;
82372;SDS011;72000;42.828;23.382;2024-03-22T08:52:08;5.93;;;2.50;;
82372;SDS011;72000;42.828;23.382;2024-03-22T08:54:34;5.82;;;2.38;;
82372;SDS011;72000;42.828;23.382;2024-03-22T08:56:59;5.78;;;2.55;;
82372;SDS011;72000;42.828;23.382;2024-03-22T08:59:25;5.35;;;2.63;;
82372;SDS011;72000;42.828;23.382;2024-03-22T09:01:51;5.55;;;2.47;;
82372;SDS011;72000;42.828;23.382;2024-03-22T09:04:17;6.95;;;2.72;;
82372;SDS011;72000;42.828;23.382;2024-03-22T09:06:42;7.03;;;2.65;;
82372;SDS011;72000;42.828;23.382;2024-03-22T09:09:08;5.93;;;2.65;;
82372;SDS011;72000;42.828;23.382;2024-03-22T09:11:34;4.80;;;2.30;;
82372;SDS011;72000;42.828;23.382;2024-03-22T09:13:59;5.47;;;2.30;;
82372;SDS011;72000;42.828;23.382;2024-03-22T09:16:25;5.10;;;2.35;;
82372;SDS011;72000;42.828;23.382;2024-03-22T09:18:50;5.40;;;2.70;;
82372;SDS011;72000;42.828;23.382;2024-03-22T09:21:16;5.82;;;2.40;;
82372;SDS011;72000;42.828;23.382;2024-03-22T09:23:42;4.75;;;2.20;;
82372;SDS011;72000;42.828;23.382;2024-03-22T09:26:07;5.20;;;2.30;;
82372;SDS011;72000;42.828;23.382;2024-03-22T09:28:33;5.80;;;2.63;;
82372;SDS011;72000;42.828;23.382;2024-03-22T09:31:03;6.22;;;2.45;;
82372;SDS011;72000;42.828;23.382;2024-03-22T09:33:30;5.63;;;2.60;;
82372;SDS011;72000;42.828;23.382;2024-03-22T09:35:57;5.20;;;2.50;;
82372;SDS011;72000;42.828;23.382;2024-03-22T09:38:23;6.40;;;2.50;;
82372;SDS011;72000;42.828;23.382;2024-03-22T09:40:48;7.18;;;2.63;;
82372;SDS011;72000;42.828;23.382;2024-03-22T09:43:19;6.18;;;2.50;;
82372;SDS011;72000;42.828;23.382;2024-03-22T09:45:45;5.03;;;2.53;;
82372;SDS011;72000;42.828;23.382;2024-03-22T09:48:12;5.93;;;2.33;;
82372;SDS011;72000;42.828;23.382;2024-03-22T09:50:38;5.65;;;2.30;;
82372;SDS011;72000;42.828;23.382;2024-03-22T09:53:05;5.07;;;2.33;;
82372;SDS011;72000;42.828;23.382;2024-03-22T09:55:30;5.70;;;2.40;;
82372;SDS011;72000;42.828;23.382;2024-03-22T09:57:57;6.68;;;2.40;;
82372;SDS011;72000;42.828;23.382;2024-03-22T10:00:23;4.40;;;2.08;;
82372;SDS011;72000;42.828;23.382;2024-03-22T10:02:51;5.30;;;2.28;;
82372;SDS011;72000;42.828;23.382;2024-03-22T10:05:17;4.60;;;2.05;;
82372;SDS011;72000;42.828;23.382;2024-03-22T10:07:45;4.72;;;2.10;;
82372;SDS011;72000;42.828;23.382;2024-03-22T10:10:11;4.85;;;2.30;;
82372;SDS011;72000;42.828;23.382;2024-03-22T10:12:37;4.75;;;2.05;;
82372;SDS011;72000;42.828;23.382;2024-03-22T10:17:30;5.03;;;2.30;;
82372;SDS011;72000;42.828;23.382;2024-03-22T10:19:55;4.60;;;2.50;;
82372;SDS011;72000;42.828;23.382;2024-03-22T10:22:21;4.32;;;2.10;;
82372;SDS011;72000;42.828;23.382;2024-03-22T10:24:47;4.43;;;2.00;;
82372;SDS011;72000;42.828;23.382;2024-03-22T10:27:12;4.43;;;2.10;;
82372;SDS011;72000;42.828;23.382;2024-03-22T10:29:38;4.88;;;2.05;;
82372;SDS011;72000;42.828;23.382;2024-03-22T10:32:04;4.70;;;2.08;;
82372;SDS011;72000;42.828;23.382;2024-03-22T10:34:30;4.40;;;2.13;;
82372;SDS011;72000;42.828;23.382;2024-03-22T10:39:23;4.95;;;2.10;;
82372;SDS011;72000;42.828;23.382;2024-03-22T10:41:48;5.70;;;2.30;;
82372;SDS011;72000;42.828;23.382;2024-03-22T10:44:17;5.05;;;2.00;;
82372;SDS011;72000;42.828;23.382;2024-03-22T10:46:46;4.47;;;1.90;;
82372;SDS011;72000;42.828;23.382;2024-03-22T10:49:16;4.90;;;2.10;;
82372;SDS011;72000;42.828;23.382;2024-03-22T10:51:54;4.57;;;2.10;;
82372;SDS011;72000;42.828;23.382;2024-03-22T10:54:24;4.80;;;2.03;;
82372;SDS011;72000;42.828;23.382;2024-03-22T10:56:53;4.68;;;2.10;;
82372;SDS011;72000;42.828;23.382;2024-03-22T10:59:19;4.20;;;2.05;;
82372;SDS011;72000;42.828;23.382;2024-03-22T11:01:46;5.10;;;2.47;;
82372;SDS011;72000;42.828;23.382;2024-03-22T11:04:12;4.97;;;2.20;;
82372;SDS011;72000;42.828;23.382;2024-03-22T11:06:38;4.65;;;2.10;;
82372;SDS011;72000;42.828;23.382;2024-03-22T11:11:29;4.72;;;1.92;;
82372;SDS011;72000;42.828;23.382;2024-03-22T11:13:56;4.47;;;2.13;;
82372;SDS011;72000;42.828;23.382;2024-03-22T11:16:22;6.15;;;2.20;;
82372;SDS011;72000;42.828;23.382;2024-03-22T11:18:48;5.05;;;2.20;;
82372;SDS011;72000;42.828;23.382;2024-03-22T11:21:17;4.85;;;2.42;;
82372;SDS011;72000;42.828;23.382;2024-03-22T11:23:46;5.30;;;2.25;;
82372;SDS011;72000;42.828;23.382;2024-03-22T11:26:11;5.38;;;2.17;;
82372;SDS011;72000;42.828;23.382;2024-03-22T11:28:38;4.57;;;2.38;;
82372;SDS011;72000;42.828;23.382;2024-03-22T11:31:04;4.70;;;2.03;;
82372;SDS011;72000;42.828;23.382;2024-03-22T11:33:30;4.30;;;2.10;;
82372;SDS011;72000;42.828;23.382;2024-03-22T11:38:23;4.40;;;2.00;;
82372;SDS011;72000;42.828;23.382;2024-03-22T11:40:51;4.60;;;2.00;;
82372;SDS011;72000;42.828;23.382;2024-03-22T11:43:16;4.75;;;2.00;;
82372;SDS011;72000;42.828;23.382;2024-03-22T11:45:42;3.55;;;1.77;;
82372;SDS011;72000;42.828;23.382;2024-03-22T11:48:08;4.47;;;2.10;;
82372;SDS011;72000;42.828;23.382;2024-03-22T11:50:35;4.85;;;2.22;;
82372;SDS011;72000;42.828;23.382;2024-03-22T11:53:02;5.20;;;2.30;;
82372;SDS011;72000;42.828;23.382;2024-03-22T11:55:30;5.57;;;2.20;;
82372;SDS011;72000;42.828;23.382;2024-03-22T11:57:57;4.15;;;1.92;;
82372;SDS011;72000;42.828;23.382;2024-03-22T12:00:22;5.10;;;2.17;;
82372;SDS011;72000;42.828;23.382;2024-03-22T12:02:50;7.32;;;2.20;;
82372;SDS011;72000;42.828;23.382;2024-03-22T12:05:17;4.93;;;2.20;;
82372;SDS011;72000;42.828;23.382;2024-03-22T12:07:43;4.72;;;2.40;;
82372;SDS011;72000;42.828;23.382;2024-03-22T12:10:09;6.18;;;2.20;;
82372;SDS011;72000;42.828;23.382;2024-03-22T12:12:35;4.60;;;2.20;;
82372;SDS011;72000;42.828;23.382;2024-03-22T12:15:02;5.43;;;2.08;;
82372;SDS011;72000;42.828;23.382;2024-03-22T12:17:28;4.43;;;2.20;;
82372;SDS011;72000;42.828;23.382;2024-03-22T12:19:54;4.72;;;2.20;;
82372;SDS011;72000;42.828;23.382;2024-03-22T12:22:21;5.28;;;2.10;;
82372;SDS011;72000;42.828;23.382;2024-03-22T12:24:47;5.00;;;2.30;;
82372;SDS011;72000;42.828;23.382;2024-03-22T12:27:12;5.47;;;2.40;;
82372;SDS011;72000;42.828;23.382;2024-03-22T12:29:38;4.60;;;2.20;;
82372;SDS011;72000;42.828;23.382;2024-03-22T12:34:29;6.25;;;2.08;;
82372;SDS011;72000;42.828;23.382;2024-03-22T12:36:55;4.60;;;2.20;;
82372;SDS011;72000;42.828;23.382;2024-03-22T12:39:21;5.15;;;2.38;;
82372;SDS011;72000;42.828;23.382;2024-03-22T12:41:46;5.00;;;2.60;;
82372;SDS011;72000;42.828;23.382;2024-03-22T12:44:12;4.60;;;2.00;;
82372;SDS011;72000;42.828;23.382;2024-03-22T12:46:38;5.40;;;2.15;;
82372;SDS011;72000;42.828;23.382;2024-03-22T12:51:29;4.35;;;2.35;;
82372;SDS011;72000;42.828;23.382;2024-03-22T12:56:20;4.83;;;2.20;;
82372;SDS011;72000;42.828;23.382;2024-03-22T12:58:46;5.45;;;2.22;;
82372;SDS011;72000;42.828;23.382;2024-03-22T13:01:12;5.20;;;2.20;;
82372;SDS011;72000;42.828;23.382;2024-03-22T13:03:38;5.55;;;2.53;;
82372;SDS011;72000;42.828;23.382;2024-03-22T13:06:04;5.00;;;2.35;;
82372;SDS011;72000;42.828;23.382;2024-03-22T13:08:31;5.07;;;2.42;;
82372;SDS011;72000;42.828;23.382;2024-03-22T13:10:57;5.15;;;2.60;;
82372;SDS011;72000;42.828;23.382;2024-03-22T13:13:22;5.65;;;2.70;;
82372;SDS011;72000;42.828;23.382;2024-03-22T13:18:13;5.25;;;2.50;;
82372;SDS011;72000;42.828;23.382;2024-03-22T13:20:42;5.60;;;2.30;;
82372;SDS011;72000;42.828;23.382;2024-03-22T13:23:08;5.30;;;2.35;;
82372;SDS011;72000;42.828;23.382;2024-03-22T13:28:03;4.93;;;2.53;;
82372;SDS011;72000;42.828;23.382;2024-03-22T13:30:30;6.10;;;2.70;;
82372;SDS011;72000;42.828;23.382;2024-03-22T13:35:21;5.85;;;2.42;;
82372;SDS011;72000;42.828;23.382;2024-03-22T13:40:12;4.90;;;2.60;;
82372;SDS011;72000;42.828;23.382;2024-03-22T13:45:03;4.97;;;2.20;;
82372;SDS011;72000;42.828;23.382;2024-03-22T13:47:29;4.82;;;2.25;;
82372;SDS011;72000;42.828;23.382;2024-03-22T13:49:55;6.45;;;2.40;;
82372;SDS011;72000;42.828;23.382;2024-03-22T13:52:21;5.07;;;2.30;;
82372;SDS011;72000;42.828;23.382;2024-03-22T13:57:12;5.32;;;2.50;;
82372;SDS011;72000;42.828;23.382;2024-03-22T13:59:38;5.90;;;2.80;;
82372;SDS011;72000;42.828;23.382;2024-03-22T14:02:05;6.75;;;2.92;;
82372;SDS011;72000;42.828;23.382;2024-03-22T14:04:31;5.72;;;2.17;;
82372;SDS011;72000;42.828;23.382;2024-03-22T14:09:22;5.78;;;2.50;;
82372;SDS011;72000;42.828;23.382;2024-03-22T14:11:48;6.72;;;2.47;;
82372;SDS011;72000;42.828;23.382;2024-03-22T14:14:14;5.25;;;2.80;;
82372;SDS011;72000;42.828;23.382;2024-03-22T14:19:06;5.22;;;2.40;;
82372;SDS011;72000;42.828;23.382;2024-03-22T14:21:33;6.80;;;2.97;;
82372;SDS011;72000;42.828;23.382;2024-03-22T14:23:59;5.32;;;2.55;;
82372;SDS011;72000;42.828;23.382;2024-03-22T14:26:25;5.00;;;2.30;;
82372;SDS011;72000;42.828;23.382;2024-03-22T14:31:18;4.97;;;2.42;;
82372;SDS011;72000;42.828;23.382;2024-03-22T14:33:44;5.50;;;2.40;;
82372;SDS011;72000;42.828;23.382;2024-03-22T14:38:36;4.85;;;2.63;;
82372;SDS011;72000;42.828;23.382;2024-03-22T14:43:27;6.78;;;2.60;;
82372;SDS011;72000;42.828;23.382;2024-03-22T14:45:54;5.38;;;2.55;;
82372;SDS011;72000;42.828;23.382;2024-03-22T14:48:23;6.70;;;3.03;;
82372;SDS011;72000;42.828;23.382;2024-03-22T14:50:49;6.30;;;2.70;;
82372;SDS011;72000;42.828;23.382;2024-03-22T14:53:16;4.88;;;2.55;;
82372;SDS011;72000;42.828;23.382;2024-03-22T14:55:51;7.68;;;2.90;;
82372;SDS011;72000;42.828;23.382;2024-03-22T14:58:20;4.72;;;2.40;;
82372;SDS011;72000;42.828;23.382;2024-03-22T15:00:56;6.68;;;2.72;;
82372;SDS011;72000;42.828;23.382;2024-03-22T15:03:22;5.43;;;2.40;;
82372;SDS011;72000;42.828;23.382;2024-03-22T15:05:50;5.35;;;2.40;;
82372;SDS011;72000;42.828;23.382;2024-03-22T15:08:16;5.13;;;2.30;;
82372;SDS011;72000;42.828;23.382;2024-03-22T15:10:41;5.53;;;2.38;;
82372;SDS011;72000;42.828;23.382;2024-03-22T15:13:07;4.28;;;2.25;;
82372;SDS011;72000;42.828;23.382;2024-03-22T15:15:33;6.20;;;2.95;;
82372;SDS011;72000;42.828;23.382;2024-03-22T15:17:59;5.85;;;2.90;;
82372;SDS011;72000;42.828;23.382;2024-03-22T15:20:25;6.05;;;2.42;;
82372;SDS011;72000;42.828;23.382;2024-03-22T15:22:52;6.20;;;2.67;;